sensor_id;sensor_type;location;lat;lon;timestamp;P1;durP1;ratioP1;P2;durP2;ratioP2
26908;SDS011;14477;51.038;4.588;2023-06-19T00:00:53;2.70;;;1.67;;
26908;SDS011;14477;51.038;4.588;2023-06-19T00:03:19;3.20;;;1.57;;
26908;SDS011;14477;51.038;4.588;2023-06-19T00:05:45;2.72;;;1.77;;
26908;SDS011;14477;51.038;4.588;2023-06-19T00:08:11;3.30;;;1.83;;
26908;SDS011;14477;51.038;4.588;2023-06-19T00:10:37;2.53;;;1.70;;
26908;SDS011;14477;51.038;4.588;2023-06-19T00:13:03;2.30;;;1.60;;
26908;SDS011;14477;51.038;4.588;2023-06-19T00:15:28;2.87;;;1.80;;
26908;SDS011;14477;51.038;4.588;2023-06-19T00:17:55;2.45;;;1.67;;
26908;SDS011;14477;51.038;4.588;2023-06-19T00:20:22;2.70;;;1.70;;
26908;SDS011;14477;51.038;4.588;2023-06-19T00:22:48;2.50;;;1.60;;
26908;SDS011;14477;51.038;4.588;2023-06-19T00:25:17;2.65;;;1.60;;
26908;SDS011;14477;51.038;4.588;2023-06-19T00:27:44;2.88;;;1.50;;
26908;SDS011;14477;51.038;4.588;2023-06-19T00:30:10;3.53;;;1.85;;
26908;SDS011;14477;51.038;4.588;2023-06-19T00:32:36;2.13;;;1.47;;
26908;SDS011;14477;51.038;4.588;2023-06-19T00:35:15;3.60;;;1.60;;
26908;SDS011;14477;51.038;4.588;2023-06-19T00:37:42;2.28;;;1.48;;
26908;SDS011;14477;51.038;4.588;2023-06-19T00:40:19;2.45;;;1.65;;
26908;SDS011;14477;51.038;4.588;2023-06-19T00:42:51;2.30;;;1.40;;
26908;SDS011;14477;51.038;4.588;2023-06-19T00:45:17;2.40;;;1.60;;
26908;SDS011;14477;51.038;4.588;2023-06-19T00:47:43;2.10;;;1.45;;
26908;SDS011;14477;51.038;4.588;2023-06-19T00:50:08;2.13;;;1.50;;
26908;SDS011;14477;51.038;4.588;2023-06-19T00:52:35;2.78;;;1.30;;
26908;SDS011;14477;51.038;4.588;2023-06-19T00:55:01;3.03;;;1.60;;
26908;SDS011;14477;51.038;4.588;2023-06-19T00:57:27;2.25;;;1.40;;
26908;SDS011;14477;51.038;4.588;2023-06-19T00:59:54;1.98;;;1.30;;
26908;SDS011;14477;51.038;4.588;2023-06-19T01:02:20;2.60;;;1.33;;
26908;SDS011;14477;51.038;4.588;2023-06-19T01:04:51;2.25;;;1.40;;
26908;SDS011;14477;51.038;4.588;2023-06-19T01:07:18;1.90;;;1.20;;
26908;SDS011;14477;51.038;4.588;2023-06-19T01:09:53;2.10;;;1.40;;
26908;SDS011;14477;51.038;4.588;2023-06-19T01:12:32;1.95;;;1.20;;
26908;SDS011;14477;51.038;4.588;2023-06-19T01:15:02;1.75;;;1.23;;
26908;SDS011;14477;51.038;4.588;2023-06-19T01:17:30;2.38;;;1.50;;
26908;SDS011;14477;51.038;4.588;2023-06-19T01:19:57;1.70;;;1.30;;
26908;SDS011;14477;51.038;4.588;2023-06-19T01:22:41;2.00;;;1.40;;
26908;SDS011;14477;51.038;4.588;2023-06-19T01:25:10;2.58;;;1.50;;
26908;SDS011;14477;51.038;4.588;2023-06-19T01:27:39;3.03;;;1.50;;
26908;SDS011;14477;51.038;4.588;2023-06-19T01:30:10;2.38;;;1.70;;
26908;SDS011;14477;51.038;4.588;2023-06-19T01:35:13;2.13;;;1.30;;
26908;SDS011;14477;51.038;4.588;2023-06-19T01:37:42;1.95;;;1.30;;
26908;SDS011;14477;51.038;4.588;2023-06-19T01:40:10;3.10;;;1.30;;
26908;SDS011;14477;51.038;4.588;2023-06-19T01:42:37;2.42;;;1.50;;
26908;SDS011;14477;51.038;4.588;2023-06-19T01:45:05;1.87;;;1.40;;
26908;SDS011;14477;51.038;4.588;2023-06-19T01:47:32;2.17;;;1.33;;
26908;SDS011;14477;51.038;4.588;2023-06-19T01:49:57;2.78;;;1.30;;
26908;SDS011;14477;51.038;4.588;2023-06-19T01:52:24;2.73;;;1.50;;
26908;SDS011;14477;51.038;4.588;2023-06-19T01:54:50;2.67;;;1.60;;
26908;SDS011;14477;51.038;4.588;2023-06-19T01:57:16;2.42;;;1.55;;
26908;SDS011;14477;51.038;4.588;2023-06-19T01:59:42;2.38;;;1.40;;
26908;SDS011;14477;51.038;4.588;2023-06-19T02:02:07;2.23;;;1.60;;
26908;SDS011;14477;51.038;4.588;2023-06-19T02:04:33;2.75;;;1.50;;
26908;SDS011;14477;51.038;4.588;2023-06-19T02:06:59;1.70;;;1.27;;
26908;SDS011;14477;51.038;4.588;2023-06-19T02:09:24;2.90;;;1.50;;
26908;SDS011;14477;51.038;4.588;2023-06-19T02:11:50;2.90;;;1.57;;
26908;SDS011;14477;51.038;4.588;2023-06-19T02:14:16;2.08;;;1.33;;
26908;SDS011;14477;51.038;4.588;2023-06-19T02:16:42;1.87;;;1.53;;
26908;SDS011;14477;51.038;4.588;2023-06-19T02:19:11;2.03;;;1.50;;
26908;SDS011;14477;51.038;4.588;2023-06-19T02:21:37;2.72;;;1.33;;
26908;SDS011;14477;51.038;4.588;2023-06-19T02:24:03;2.10;;;1.70;;
26908;SDS011;14477;51.038;4.588;2023-06-19T02:26:29;2.45;;;1.70;;
26908;SDS011;14477;51.038;4.588;2023-06-19T02:28:55;2.33;;;1.53;;
26908;SDS011;14477;51.038;4.588;2023-06-19T02:31:22;2.30;;;1.40;;
26908;SDS011;14477;51.038;4.588;2023-06-19T02:33:48;3.38;;;1.50;;
26908;SDS011;14477;51.038;4.588;2023-06-19T02:36:14;2.20;;;1.60;;
26908;SDS011;14477;51.038;4.588;2023-06-19T02:38:47;2.37;;;1.67;;
26908;SDS011;14477;51.038;4.588;2023-06-19T02:41:14;2.50;;;1.60;;
26908;SDS011;14477;51.038;4.588;2023-06-19T02:43:41;3.05;;;1.83;;
26908;SDS011;14477;51.038;4.588;2023-06-19T02:46:08;2.65;;;1.58;;
26908;SDS011;14477;51.038;4.588;2023-06-19T02:48:34;2.28;;;1.50;;
26908;SDS011;14477;51.038;4.588;2023-06-19T02:51:00;2.57;;;1.73;;
26908;SDS011;14477;51.038;4.588;2023-06-19T02:53:25;2.47;;;1.80;;
26908;SDS011;14477;51.038;4.588;2023-06-19T02:55:51;2.67;;;1.50;;
26908;SDS011;14477;51.038;4.588;2023-06-19T02:58:17;2.50;;;1.60;;
26908;SDS011;14477;51.038;4.588;2023-06-19T03:00:42;2.27;;;1.67;;
26908;SDS011;14477;51.038;4.588;2023-06-19T03:03:09;2.28;;;1.52;;
26908;SDS011;14477;51.038;4.588;2023-06-19T03:05:35;3.47;;;1.77;;
26908;SDS011;14477;51.038;4.588;2023-06-19T03:08:00;2.50;;;1.70;;
26908;SDS011;14477;51.038;4.588;2023-06-19T03:10:26;2.35;;;1.60;;
26908;SDS011;14477;51.038;4.588;2023-06-19T03:12:52;2.87;;;1.80;;
26908;SDS011;14477;51.038;4.588;2023-06-19T03:15:18;2.05;;;1.63;;
26908;SDS011;14477;51.038;4.588;2023-06-19T03:17:43;2.67;;;1.70;;
26908;SDS011;14477;51.038;4.588;2023-06-19T03:20:09;2.65;;;1.90;;
26908;SDS011;14477;51.038;4.588;2023-06-19T03:22:38;2.33;;;1.40;;
26908;SDS011;14477;51.038;4.588;2023-06-19T03:25:05;2.90;;;1.75;;
26908;SDS011;14477;51.038;4.588;2023-06-19T03:27:32;2.47;;;1.77;;
26908;SDS011;14477;51.038;4.588;2023-06-19T03:29:58;2.15;;;1.58;;
26908;SDS011;14477;51.038;4.588;2023-06-19T03:32:24;1.90;;;1.70;;
26908;SDS011;14477;51.038;4.588;2023-06-19T03:34:49;4.57;;;1.77;;
26908;SDS011;14477;51.038;4.588;2023-06-19T03:37:15;4.57;;;1.83;;
26908;SDS011;14477;51.038;4.588;2023-06-19T03:39:41;3.60;;;1.77;;
26908;SDS011;14477;51.038;4.588;2023-06-19T03:42:07;3.40;;;1.80;;
26908;SDS011;14477;51.038;4.588;2023-06-19T03:44:33;2.63;;;1.60;;
26908;SDS011;14477;51.038;4.588;2023-06-19T03:46:59;2.67;;;1.70;;
26908;SDS011;14477;51.038;4.588;2023-06-19T03:49:25;2.63;;;1.70;;
26908;SDS011;14477;51.038;4.588;2023-06-19T03:51:51;2.27;;;1.87;;
26908;SDS011;14477;51.038;4.588;2023-06-19T03:54:17;2.40;;;1.70;;
26908;SDS011;14477;51.038;4.588;2023-06-19T03:56:42;2.47;;;1.80;;
26908;SDS011;14477;51.038;4.588;2023-06-19T03:59:08;3.53;;;1.90;;
26908;SDS011;14477;51.038;4.588;2023-06-19T04:01:34;3.37;;;1.93;;
26908;SDS011;14477;51.038;4.588;2023-06-19T04:03:59;3.40;;;1.80;;
26908;SDS011;14477;51.038;4.588;2023-06-19T04:06:25;3.00;;;1.80;;
26908;SDS011;14477;51.038;4.588;2023-06-19T04:08:51;2.75;;;1.77;;
26908;SDS011;14477;51.038;4.588;2023-06-19T04:11:17;3.95;;;1.83;;
26908;SDS011;14477;51.038;4.588;2023-06-19T04:13:43;2.40;;;1.70;;
26908;SDS011;14477;51.038;4.588;2023-06-19T04:16:08;2.53;;;1.70;;
26908;SDS011;14477;51.038;4.588;2023-06-19T04:18:34;2.33;;;1.70;;
26908;SDS011;14477;51.038;4.588;2023-06-19T04:21:00;3.08;;;1.90;;
26908;SDS011;14477;51.038;4.588;2023-06-19T04:23:26;2.27;;;1.70;;
26908;SDS011;14477;51.038;4.588;2023-06-19T04:25:52;2.42;;;1.40;;
26908;SDS011;14477;51.038;4.588;2023-06-19T04:28:17;2.03;;;1.60;;
26908;SDS011;14477;51.038;4.588;2023-06-19T04:30:43;1.90;;;1.50;;
26908;SDS011;14477;51.038;4.588;2023-06-19T04:33:09;2.63;;;1.50;;
26908;SDS011;14477;51.038;4.588;2023-06-19T04:35:34;3.20;;;1.70;;
26908;SDS011;14477;51.038;4.588;2023-06-19T04:38:05;2.28;;;1.60;;
26908;SDS011;14477;51.038;4.588;2023-06-19T04:40:31;2.35;;;1.50;;
26908;SDS011;14477;51.038;4.588;2023-06-19T04:42:58;2.53;;;1.57;;
26908;SDS011;14477;51.038;4.588;2023-06-19T04:45:24;1.97;;;1.50;;
26908;SDS011;14477;51.038;4.588;2023-06-19T04:47:50;2.38;;;1.70;;
26908;SDS011;14477;51.038;4.588;2023-06-19T04:50:16;1.92;;;1.48;;
26908;SDS011;14477;51.038;4.588;2023-06-19T04:52:42;2.27;;;1.50;;
26908;SDS011;14477;51.038;4.588;2023-06-19T04:55:07;2.30;;;1.50;;
26908;SDS011;14477;51.038;4.588;2023-06-19T04:57:36;2.88;;;1.40;;
26908;SDS011;14477;51.038;4.588;2023-06-19T05:00:05;2.30;;;1.60;;
26908;SDS011;14477;51.038;4.588;2023-06-19T05:02:32;1.70;;;1.60;;
26908;SDS011;14477;51.038;4.588;2023-06-19T05:04:59;2.15;;;1.63;;
26908;SDS011;14477;51.038;4.588;2023-06-19T05:07:31;2.83;;;1.57;;
26908;SDS011;14477;51.038;4.588;2023-06-19T05:09:58;3.15;;;1.70;;
26908;SDS011;14477;51.038;4.588;2023-06-19T05:12:24;2.75;;;1.50;;
26908;SDS011;14477;51.038;4.588;2023-06-19T05:14:50;2.13;;;1.60;;
26908;SDS011;14477;51.038;4.588;2023-06-19T05:17:16;2.90;;;1.80;;
26908;SDS011;14477;51.038;4.588;2023-06-19T05:19:41;3.83;;;1.73;;
26908;SDS011;14477;51.038;4.588;2023-06-19T05:22:07;3.20;;;1.83;;
26908;SDS011;14477;51.038;4.588;2023-06-19T05:24:33;3.30;;;1.93;;
26908;SDS011;14477;51.038;4.588;2023-06-19T05:26:58;4.35;;;2.10;;
26908;SDS011;14477;51.038;4.588;2023-06-19T05:29:24;3.10;;;2.00;;
26908;SDS011;14477;51.038;4.588;2023-06-19T05:31:50;2.72;;;2.10;;
26908;SDS011;14477;51.038;4.588;2023-06-19T05:34:16;3.33;;;1.90;;
26908;SDS011;14477;51.038;4.588;2023-06-19T05:36:42;3.63;;;2.10;;
26908;SDS011;14477;51.038;4.588;2023-06-19T05:39:10;3.33;;;2.10;;
26908;SDS011;14477;51.038;4.588;2023-06-19T05:41:36;3.95;;;2.03;;
26908;SDS011;14477;51.038;4.588;2023-06-19T05:44:01;3.72;;;2.28;;
26908;SDS011;14477;51.038;4.588;2023-06-19T05:46:27;3.03;;;2.10;;
26908;SDS011;14477;51.038;4.588;2023-06-19T05:48:53;3.72;;;2.20;;
26908;SDS011;14477;51.038;4.588;2023-06-19T05:51:19;2.97;;;2.20;;
26908;SDS011;14477;51.038;4.588;2023-06-19T05:53:45;3.58;;;2.38;;
26908;SDS011;14477;51.038;4.588;2023-06-19T05:56:11;4.38;;;2.47;;
26908;SDS011;14477;51.038;4.588;2023-06-19T05:58:37;4.00;;;2.50;;
26908;SDS011;14477;51.038;4.588;2023-06-19T06:01:04;3.80;;;2.43;;
26908;SDS011;14477;51.038;4.588;2023-06-19T06:03:30;3.92;;;2.80;;
26908;SDS011;14477;51.038;4.588;2023-06-19T06:05:56;4.75;;;2.75;;
26908;SDS011;14477;51.038;4.588;2023-06-19T06:08:28;4.32;;;2.70;;
26908;SDS011;14477;51.038;4.588;2023-06-19T06:10:54;5.28;;;3.05;;
26908;SDS011;14477;51.038;4.588;2023-06-19T06:13:20;5.87;;;2.97;;
26908;SDS011;14477;51.038;4.588;2023-06-19T06:15:46;4.53;;;2.90;;
26908;SDS011;14477;51.038;4.588;2023-06-19T06:18:12;3.33;;;2.60;;
26908;SDS011;14477;51.038;4.588;2023-06-19T06:20:38;6.78;;;3.00;;
26908;SDS011;14477;51.038;4.588;2023-06-19T06:23:03;4.73;;;2.90;;
26908;SDS011;14477;51.038;4.588;2023-06-19T06:25:29;5.85;;;2.97;;
26908;SDS011;14477;51.038;4.588;2023-06-19T06:27:55;4.03;;;3.10;;
26908;SDS011;14477;51.038;4.588;2023-06-19T06:30:21;5.38;;;2.92;;
26908;SDS011;14477;51.038;4.588;2023-06-19T06:32:47;5.75;;;3.03;;
26908;SDS011;14477;51.038;4.588;2023-06-19T06:35:13;4.67;;;3.40;;
26908;SDS011;14477;51.038;4.588;2023-06-19T06:37:39;4.55;;;3.20;;
26908;SDS011;14477;51.038;4.588;2023-06-19T06:40:06;4.57;;;3.13;;
26908;SDS011;14477;51.038;4.588;2023-06-19T06:42:36;7.70;;;3.40;;
26908;SDS011;14477;51.038;4.588;2023-06-19T06:45:02;4.40;;;3.27;;
26908;SDS011;14477;51.038;4.588;2023-06-19T06:47:32;3.80;;;2.95;;
26908;SDS011;14477;51.038;4.588;2023-06-19T06:49:58;4.57;;;2.88;;
26908;SDS011;14477;51.038;4.588;2023-06-19T06:52:23;5.20;;;3.10;;
26908;SDS011;14477;51.038;4.588;2023-06-19T06:54:49;4.00;;;3.15;;
26908;SDS011;14477;51.038;4.588;2023-06-19T06:57:15;4.70;;;3.40;;
26908;SDS011;14477;51.038;4.588;2023-06-19T06:59:41;5.40;;;3.23;;
26908;SDS011;14477;51.038;4.588;2023-06-19T07:02:07;4.03;;;3.05;;
26908;SDS011;14477;51.038;4.588;2023-06-19T07:04:33;4.43;;;3.35;;
26908;SDS011;14477;51.038;4.588;2023-06-19T07:06:58;4.13;;;3.10;;
26908;SDS011;14477;51.038;4.588;2023-06-19T07:09:24;3.67;;;2.90;;
26908;SDS011;14477;51.038;4.588;2023-06-19T07:11:50;5.77;;;3.53;;
26908;SDS011;14477;51.038;4.588;2023-06-19T07:14:15;4.57;;;3.13;;
26908;SDS011;14477;51.038;4.588;2023-06-19T07:16:44;5.53;;;3.20;;
26908;SDS011;14477;51.038;4.588;2023-06-19T07:19:10;5.10;;;3.13;;
26908;SDS011;14477;51.038;4.588;2023-06-19T07:21:37;4.50;;;3.60;;
26908;SDS011;14477;51.038;4.588;2023-06-19T07:24:04;4.85;;;3.80;;
26908;SDS011;14477;51.038;4.588;2023-06-19T07:26:30;6.05;;;4.13;;
26908;SDS011;14477;51.038;4.588;2023-06-19T07:28:56;4.97;;;3.63;;
26908;SDS011;14477;51.038;4.588;2023-06-19T07:31:22;6.57;;;4.25;;
26908;SDS011;14477;51.038;4.588;2023-06-19T07:33:47;5.55;;;3.90;;
26908;SDS011;14477;51.038;4.588;2023-06-19T07:36:13;5.83;;;3.80;;
26908;SDS011;14477;51.038;4.588;2023-06-19T07:38:42;6.60;;;4.05;;
26908;SDS011;14477;51.038;4.588;2023-06-19T07:41:08;5.20;;;4.00;;
26908;SDS011;14477;51.038;4.588;2023-06-19T07:43:36;6.97;;;4.00;;
26908;SDS011;14477;51.038;4.588;2023-06-19T07:46:02;5.88;;;4.07;;
26908;SDS011;14477;51.038;4.588;2023-06-19T07:48:28;7.45;;;4.07;;
26908;SDS011;14477;51.038;4.588;2023-06-19T07:50:54;7.00;;;4.32;;
26908;SDS011;14477;51.038;4.588;2023-06-19T07:53:20;5.38;;;3.90;;
26908;SDS011;14477;51.038;4.588;2023-06-19T07:55:46;5.53;;;4.00;;
26908;SDS011;14477;51.038;4.588;2023-06-19T07:58:12;5.30;;;4.20;;
26908;SDS011;14477;51.038;4.588;2023-06-19T08:00:38;5.38;;;4.25;;
26908;SDS011;14477;51.038;4.588;2023-06-19T08:03:04;6.40;;;4.20;;
26908;SDS011;14477;51.038;4.588;2023-06-19T08:05:30;5.75;;;4.13;;
26908;SDS011;14477;51.038;4.588;2023-06-19T08:07:56;5.10;;;4.07;;
26908;SDS011;14477;51.038;4.588;2023-06-19T08:10:23;5.45;;;4.10;;
26908;SDS011;14477;51.038;4.588;2023-06-19T08:12:49;5.03;;;3.63;;
26908;SDS011;14477;51.038;4.588;2023-06-19T08:15:15;5.37;;;3.50;;
26908;SDS011;14477;51.038;4.588;2023-06-19T08:17:41;4.72;;;3.60;;
26908;SDS011;14477;51.038;4.588;2023-06-19T08:20:07;5.47;;;3.40;;
26908;SDS011;14477;51.038;4.588;2023-06-19T08:22:33;5.25;;;3.33;;
26908;SDS011;14477;51.038;4.588;2023-06-19T08:24:59;4.97;;;3.63;;
26908;SDS011;14477;51.038;4.588;2023-06-19T08:27:25;5.32;;;3.60;;
26908;SDS011;14477;51.038;4.588;2023-06-19T08:29:51;5.53;;;3.97;;
26908;SDS011;14477;51.038;4.588;2023-06-19T08:32:17;6.70;;;4.13;;
26908;SDS011;14477;51.038;4.588;2023-06-19T08:34:42;5.33;;;4.37;;
26908;SDS011;14477;51.038;4.588;2023-06-19T08:37:08;5.97;;;4.28;;
26908;SDS011;14477;51.038;4.588;2023-06-19T08:39:34;7.20;;;4.67;;
26908;SDS011;14477;51.038;4.588;2023-06-19T08:42:05;6.35;;;4.30;;
26908;SDS011;14477;51.038;4.588;2023-06-19T08:44:33;6.60;;;4.63;;
26908;SDS011;14477;51.038;4.588;2023-06-19T08:46:59;6.18;;;4.72;;
26908;SDS011;14477;51.038;4.588;2023-06-19T08:49:29;6.97;;;4.50;;
26908;SDS011;14477;51.038;4.588;2023-06-19T08:51:55;5.43;;;4.60;;
26908;SDS011;14477;51.038;4.588;2023-06-19T08:54:21;4.93;;;4.30;;
26908;SDS011;14477;51.038;4.588;2023-06-19T08:56:47;4.88;;;3.95;;
26908;SDS011;14477;51.038;4.588;2023-06-19T08:59:14;7.00;;;4.40;;
26908;SDS011;14477;51.038;4.588;2023-06-19T09:01:48;6.00;;;4.10;;
26908;SDS011;14477;51.038;4.588;2023-06-19T09:04:19;5.85;;;4.18;;
26908;SDS011;14477;51.038;4.588;2023-06-19T09:06:47;5.40;;;4.18;;
26908;SDS011;14477;51.038;4.588;2023-06-19T09:09:17;7.00;;;4.70;;
26908;SDS011;14477;51.038;4.588;2023-06-19T09:11:59;5.35;;;4.05;;
26908;SDS011;14477;51.038;4.588;2023-06-19T09:14:33;5.33;;;4.13;;
26908;SDS011;14477;51.038;4.588;2023-06-19T09:17:05;5.95;;;3.92;;
26908;SDS011;14477;51.038;4.588;2023-06-19T09:19:35;4.80;;;3.97;;
26908;SDS011;14477;51.038;4.588;2023-06-19T09:22:01;5.43;;;4.25;;
26908;SDS011;14477;51.038;4.588;2023-06-19T09:24:37;6.03;;;4.20;;
26908;SDS011;14477;51.038;4.588;2023-06-19T09:27:12;5.47;;;4.22;;
26908;SDS011;14477;51.038;4.588;2023-06-19T09:29:40;5.72;;;3.92;;
26908;SDS011;14477;51.038;4.588;2023-06-19T09:32:22;5.38;;;4.03;;
26908;SDS011;14477;51.038;4.588;2023-06-19T09:34:50;4.47;;;3.83;;
26908;SDS011;14477;51.038;4.588;2023-06-19T09:37:22;5.20;;;4.23;;
26908;SDS011;14477;51.038;4.588;2023-06-19T09:39:57;5.15;;;4.03;;
26908;SDS011;14477;51.038;4.588;2023-06-19T09:42:27;5.25;;;3.85;;
26908;SDS011;14477;51.038;4.588;2023-06-19T09:44:59;5.38;;;3.97;;
26908;SDS011;14477;51.038;4.588;2023-06-19T09:49:57;5.10;;;3.60;;
26908;SDS011;14477;51.038;4.588;2023-06-19T09:52:23;5.78;;;3.58;;
26908;SDS011;14477;51.038;4.588;2023-06-19T09:54:49;4.90;;;3.50;;
26908;SDS011;14477;51.038;4.588;2023-06-19T09:57:16;4.68;;;3.80;;
26908;SDS011;14477;51.038;4.588;2023-06-19T09:59:42;5.70;;;3.90;;
26908;SDS011;14477;51.038;4.588;2023-06-19T10:02:11;6.05;;;3.60;;
26908;SDS011;14477;51.038;4.588;2023-06-19T10:04:45;4.60;;;3.53;;
26908;SDS011;14477;51.038;4.588;2023-06-19T10:07:15;4.82;;;3.30;;
26908;SDS011;14477;51.038;4.588;2023-06-19T10:09:42;5.07;;;3.67;;
26908;SDS011;14477;51.038;4.588;2023-06-19T10:12:19;4.73;;;3.50;;
26908;SDS011;14477;51.038;4.588;2023-06-19T10:14:46;4.18;;;3.38;;
26908;SDS011;14477;51.038;4.588;2023-06-19T10:17:16;4.45;;;3.20;;
26908;SDS011;14477;51.038;4.588;2023-06-19T10:19:49;4.27;;;3.30;;
26908;SDS011;14477;51.038;4.588;2023-06-19T10:22:21;3.75;;;3.10;;
26908;SDS011;14477;51.038;4.588;2023-06-19T10:24:50;3.97;;;3.30;;
26908;SDS011;14477;51.038;4.588;2023-06-19T10:27:23;4.43;;;3.00;;
26908;SDS011;14477;51.038;4.588;2023-06-19T10:29:53;4.55;;;3.30;;
26908;SDS011;14477;51.038;4.588;2023-06-19T10:32:22;4.80;;;3.43;;
26908;SDS011;14477;51.038;4.588;2023-06-19T10:34:48;5.18;;;3.25;;
26908;SDS011;14477;51.038;4.588;2023-06-19T10:37:14;4.72;;;3.28;;
26908;SDS011;14477;51.038;4.588;2023-06-19T10:39:41;4.90;;;3.50;;
26908;SDS011;14477;51.038;4.588;2023-06-19T10:42:07;4.38;;;2.95;;
26908;SDS011;14477;51.038;4.588;2023-06-19T10:44:34;5.32;;;3.33;;
26908;SDS011;14477;51.038;4.588;2023-06-19T10:47:02;5.13;;;3.03;;
26908;SDS011;14477;51.038;4.588;2023-06-19T10:49:28;3.70;;;3.08;;
26908;SDS011;14477;51.038;4.588;2023-06-19T10:51:53;4.00;;;3.27;;
26908;SDS011;14477;51.038;4.588;2023-06-19T10:54:24;4.00;;;3.03;;
26908;SDS011;14477;51.038;4.588;2023-06-19T10:56:50;4.72;;;3.35;;
26908;SDS011;14477;51.038;4.588;2023-06-19T10:59:16;3.53;;;3.13;;
26908;SDS011;14477;51.038;4.588;2023-06-19T11:04:10;3.50;;;2.85;;
26908;SDS011;14477;51.038;4.588;2023-06-19T11:06:37;5.70;;;3.35;;
26908;SDS011;14477;51.038;4.588;2023-06-19T11:09:05;4.33;;;3.13;;
26908;SDS011;14477;51.038;4.588;2023-06-19T11:11:40;5.45;;;3.20;;
26908;SDS011;14477;51.038;4.588;2023-06-19T11:14:06;3.45;;;2.90;;
26908;SDS011;14477;51.038;4.588;2023-06-19T11:16:34;5.03;;;3.33;;
26908;SDS011;14477;51.038;4.588;2023-06-19T11:19:02;4.95;;;3.10;;
26908;SDS011;14477;51.038;4.588;2023-06-19T11:21:32;3.93;;;3.50;;
26908;SDS011;14477;51.038;4.588;2023-06-19T11:24:03;4.15;;;3.10;;
26908;SDS011;14477;51.038;4.588;2023-06-19T11:26:34;5.32;;;3.13;;
26908;SDS011;14477;51.038;4.588;2023-06-19T11:29:01;3.97;;;3.30;;
26908;SDS011;14477;51.038;4.588;2023-06-19T11:31:28;4.22;;;3.20;;
26908;SDS011;14477;51.038;4.588;2023-06-19T11:34:00;4.50;;;3.27;;
26908;SDS011;14477;51.038;4.588;2023-06-19T11:36:28;3.38;;;2.90;;
26908;SDS011;14477;51.038;4.588;2023-06-19T11:38:54;3.90;;;3.30;;
26908;SDS011;14477;51.038;4.588;2023-06-19T11:41:27;4.03;;;2.90;;
26908;SDS011;14477;51.038;4.588;2023-06-19T11:44:06;3.92;;;2.90;;
26908;SDS011;14477;51.038;4.588;2023-06-19T11:46:36;5.40;;;3.35;;
26908;SDS011;14477;51.038;4.588;2023-06-19T11:49:11;4.95;;;3.33;;
26908;SDS011;14477;51.038;4.588;2023-06-19T11:51:38;5.03;;;3.67;;
26908;SDS011;14477;51.038;4.588;2023-06-19T11:54:08;4.67;;;3.30;;
26908;SDS011;14477;51.038;4.588;2023-06-19T11:56:38;4.10;;;3.13;;
26908;SDS011;14477;51.038;4.588;2023-06-19T11:59:04;5.00;;;3.50;;
26908;SDS011;14477;51.038;4.588;2023-06-19T12:01:31;4.07;;;3.20;;
26908;SDS011;14477;51.038;4.588;2023-06-19T12:03:58;6.27;;;3.20;;
26908;SDS011;14477;51.038;4.588;2023-06-19T12:06:24;3.72;;;2.95;;
26908;SDS011;14477;51.038;4.588;2023-06-19T12:08:50;3.90;;;2.95;;
26908;SDS011;14477;51.038;4.588;2023-06-19T12:11:16;4.70;;;2.72;;
26908;SDS011;14477;51.038;4.588;2023-06-19T12:13:41;4.57;;;3.10;;
26908;SDS011;14477;51.038;4.588;2023-06-19T12:16:08;4.25;;;2.72;;
26908;SDS011;14477;51.038;4.588;2023-06-19T12:18:37;3.92;;;3.10;;
26908;SDS011;14477;51.038;4.588;2023-06-19T12:21:03;3.87;;;3.23;;
26908;SDS011;14477;51.038;4.588;2023-06-19T12:23:29;3.73;;;3.00;;
26908;SDS011;14477;51.038;4.588;2023-06-19T12:25:55;4.18;;;3.20;;
26908;SDS011;14477;51.038;4.588;2023-06-19T12:28:21;3.58;;;3.00;;
26908;SDS011;14477;51.038;4.588;2023-06-19T12:30:47;3.90;;;3.20;;
26908;SDS011;14477;51.038;4.588;2023-06-19T12:33:16;4.33;;;3.20;;
26908;SDS011;14477;51.038;4.588;2023-06-19T12:35:43;4.10;;;3.00;;
26908;SDS011;14477;51.038;4.588;2023-06-19T12:38:09;4.63;;;3.30;;
26908;SDS011;14477;51.038;4.588;2023-06-19T12:40:39;4.63;;;3.45;;
26908;SDS011;14477;51.038;4.588;2023-06-19T12:43:05;4.68;;;3.75;;
26908;SDS011;14477;51.038;4.588;2023-06-19T12:45:30;4.00;;;3.27;;
26908;SDS011;14477;51.038;4.588;2023-06-19T12:47:56;5.10;;;3.60;;
26908;SDS011;14477;51.038;4.588;2023-06-19T12:50:22;6.50;;;3.57;;
26908;SDS011;14477;51.038;4.588;2023-06-19T12:52:48;5.05;;;3.53;;
26908;SDS011;14477;51.038;4.588;2023-06-19T12:55:15;3.97;;;3.08;;
26908;SDS011;14477;51.038;4.588;2023-06-19T12:57:40;3.90;;;3.43;;
26908;SDS011;14477;51.038;4.588;2023-06-19T13:00:09;4.80;;;3.33;;
26908;SDS011;14477;51.038;4.588;2023-06-19T13:02:37;3.67;;;3.35;;
26908;SDS011;14477;51.038;4.588;2023-06-19T13:05:08;4.10;;;3.70;;
26908;SDS011;14477;51.038;4.588;2023-06-19T13:07:37;3.53;;;2.90;;
26908;SDS011;14477;51.038;4.588;2023-06-19T13:10:03;4.32;;;3.50;;
26908;SDS011;14477;51.038;4.588;2023-06-19T13:12:31;4.70;;;3.47;;
26908;SDS011;14477;51.038;4.588;2023-06-19T13:14:57;5.35;;;3.67;;
26908;SDS011;14477;51.038;4.588;2023-06-19T13:17:23;4.20;;;3.57;;
26908;SDS011;14477;51.038;4.588;2023-06-19T13:19:49;5.15;;;2.97;;
26908;SDS011;14477;51.038;4.588;2023-06-19T13:22:15;4.30;;;3.00;;
26908;SDS011;14477;51.038;4.588;2023-06-19T13:24:41;4.32;;;3.35;;
26908;SDS011;14477;51.038;4.588;2023-06-19T13:27:06;4.70;;;3.53;;
26908;SDS011;14477;51.038;4.588;2023-06-19T13:29:33;4.20;;;3.40;;
26908;SDS011;14477;51.038;4.588;2023-06-19T13:31:59;3.97;;;3.13;;
26908;SDS011;14477;51.038;4.588;2023-06-19T13:34:25;4.37;;;3.57;;
26908;SDS011;14477;51.038;4.588;2023-06-19T13:36:51;5.07;;;3.50;;
26908;SDS011;14477;51.038;4.588;2023-06-19T13:39:17;4.60;;;3.08;;
26908;SDS011;14477;51.038;4.588;2023-06-19T13:41:46;4.20;;;3.37;;
26908;SDS011;14477;51.038;4.588;2023-06-19T13:44:12;4.93;;;3.47;;
26908;SDS011;14477;51.038;4.588;2023-06-19T13:46:37;4.10;;;3.67;;
26908;SDS011;14477;51.038;4.588;2023-06-19T13:49:03;4.63;;;3.70;;
26908;SDS011;14477;51.038;4.588;2023-06-19T13:51:29;4.00;;;3.60;;
26908;SDS011;14477;51.038;4.588;2023-06-19T13:53:55;4.53;;;3.45;;
26908;SDS011;14477;51.038;4.588;2023-06-19T13:56:21;4.63;;;3.60;;
26908;SDS011;14477;51.038;4.588;2023-06-19T13:58:48;4.93;;;3.30;;
26908;SDS011;14477;51.038;4.588;2023-06-19T14:01:14;5.03;;;4.15;;
26908;SDS011;14477;51.038;4.588;2023-06-19T14:03:41;5.75;;;4.28;;
26908;SDS011;14477;51.038;4.588;2023-06-19T14:06:07;3.90;;;3.30;;
26908;SDS011;14477;51.038;4.588;2023-06-19T14:08:33;4.30;;;3.77;;
26908;SDS011;14477;51.038;4.588;2023-06-19T14:10:59;4.78;;;3.95;;
26908;SDS011;14477;51.038;4.588;2023-06-19T14:13:25;4.50;;;3.45;;
26908;SDS011;14477;51.038;4.588;2023-06-19T14:15:50;4.50;;;3.77;;
26908;SDS011;14477;51.038;4.588;2023-06-19T14:18:17;4.68;;;3.70;;
26908;SDS011;14477;51.038;4.588;2023-06-19T14:20:43;4.43;;;3.50;;
26908;SDS011;14477;51.038;4.588;2023-06-19T14:23:09;4.45;;;3.90;;
26908;SDS011;14477;51.038;4.588;2023-06-19T14:25:35;5.50;;;4.13;;
26908;SDS011;14477;51.038;4.588;2023-06-19T14:28:00;4.40;;;3.53;;
26908;SDS011;14477;51.038;4.588;2023-06-19T14:30:26;3.87;;;3.40;;
26908;SDS011;14477;51.038;4.588;2023-06-19T14:32:52;4.30;;;3.30;;
26908;SDS011;14477;51.038;4.588;2023-06-19T14:35:18;4.35;;;3.58;;
26908;SDS011;14477;51.038;4.588;2023-06-19T14:37:43;4.90;;;3.63;;
26908;SDS011;14477;51.038;4.588;2023-06-19T14:40:09;4.38;;;3.60;;
26908;SDS011;14477;51.038;4.588;2023-06-19T14:42:35;4.45;;;3.45;;
26908;SDS011;14477;51.038;4.588;2023-06-19T14:45:01;4.20;;;3.47;;
26908;SDS011;14477;51.038;4.588;2023-06-19T14:47:27;4.40;;;3.58;;
26908;SDS011;14477;51.038;4.588;2023-06-19T14:49:53;4.20;;;3.10;;
26908;SDS011;14477;51.038;4.588;2023-06-19T14:52:19;4.40;;;3.17;;
26908;SDS011;14477;51.038;4.588;2023-06-19T14:54:46;5.07;;;3.22;;